createdAt,value
2017-04-14T00:01:04.604Z,0
2017-04-14T00:02:14.420Z,0
2017-04-14T00:03:24.783Z,0
2017-04-14T00:04:34.951Z,0
2017-04-14T00:05:45.057Z,0
2017-04-14T00:06:55.126Z,0
2017-04-14T00:08:04.866Z,0
2017-04-14T00:09:14.906Z,0
2017-04-14T00:10:24.685Z,0
2017-04-14T00:11:34.804Z,0
2017-04-14T00:12:44.216Z,0
2017-04-14T00:13:54.378Z,0
2017-04-14T00:15:04.764Z,0
2017-04-14T00:16:14.840Z,0
2017-04-14T00:17:24.930Z,0
2017-04-14T00:18:35.113Z,0
2017-04-14T00:19:45.322Z,0
2017-04-14T00:20:55.095Z,0
2017-04-14T00:22:05.215Z,0
2017-04-14T00:23:14.956Z,0
2017-04-14T00:24:24.476Z,0
2017-04-14T00:25:34.542Z,0
2017-04-14T00:26:44.617Z,0
2017-04-14T00:27:54.774Z,0
2017-04-14T00:29:04.557Z,0
2017-04-14T00:30:14.632Z,0
2017-04-14T00:31:24.762Z,0
2017-04-14T00:32:34.811Z,0
2017-04-14T00:33:44.217Z,0
2017-04-14T00:34:54.000Z,0
2017-04-14T00:36:04.131Z,0
2017-04-14T00:37:13.943Z,0
2017-04-14T00:38:24.353Z,0
2017-04-14T00:39:34.453Z,0
2017-04-14T00:40:44.412Z,0
2017-04-14T00:41:54.500Z,0
2017-04-14T00:43:04.249Z,0
2017-04-14T00:44:14.291Z,0
2017-04-14T00:45:24.023Z,0
2017-04-14T00:46:33.767Z,0
2017-04-14T00:47:43.965Z,0
2017-04-14T00:48:54.033Z,0
2017-04-14T00:50:04.541Z,0
2017-04-14T00:51:14.600Z,0
2017-04-14T00:52:24.334Z,0
2017-04-14T00:53:34.102Z,0
2017-04-14T00:54:44.168Z,0
2017-04-14T00:55:53.872Z,0
2017-04-14T00:57:03.927Z,0
2017-04-14T00:58:13.688Z,0
2017-04-14T00:59:23.750Z,0
2017-04-14T01:00:33.476Z,0
2017-04-14T01:01:43.957Z,0
2017-04-14T01:02:53.716Z,0
2017-04-14T01:04:03.787Z,0
2017-04-14T01:05:13.522Z,0
2017-04-14T01:06:23.651Z,0
2017-04-14T01:07:34.030Z,0
2017-04-14T01:08:44.172Z,0
2017-04-14T01:09:54.264Z,0
2017-04-14T01:11:04.342Z,0
2017-04-14T01:12:14.442Z,0
2017-04-14T01:13:24.878Z,0
2017-04-14T01:14:34.945Z,0
2017-04-14T01:15:45.064Z,0
2017-04-14T01:16:54.798Z,0
2017-04-14T01:18:04.224Z,0
2017-04-14T01:19:14.607Z,0
2017-04-14T01:20:24.336Z,0
2017-04-14T01:21:34.407Z,0
2017-04-14T01:22:44.164Z,0
2017-04-14T01:23:53.941Z,0
2017-04-14T01:25:03.986Z,0
2017-04-14T01:26:14.063Z,0
2017-04-14T01:27:23.880Z,0
2017-04-14T01:28:33.939Z,0
2017-04-14T01:29:43.724Z,0
2017-04-14T01:30:54.169Z,0
2017-04-14T01:32:04.027Z,0
2017-04-14T01:33:14.338Z,0
2017-04-14T01:34:23.757Z,0
2017-04-14T01:35:33.842Z,0
2017-04-14T01:36:44.206Z,0
2017-04-14T01:37:53.992Z,0
2017-04-14T01:39:03.407Z,0
2017-04-14T01:40:13.499Z,0
2017-04-14T01:41:23.610Z,0
2017-04-14T01:42:33.319Z,0
2017-04-14T01:43:43.069Z,0
2017-04-14T01:44:52.868Z,0
2017-04-14T01:46:02.937Z,0
2017-04-14T01:47:13.062Z,0
2017-04-14T01:48:23.087Z,0
2017-04-14T01:49:32.834Z,0
2017-04-14T01:50:42.637Z,0
2017-04-14T01:51:52.767Z,0
2017-04-14T01:53:02.874Z,0
2017-04-14T01:54:13.398Z,0
2017-04-14T01:55:23.229Z,0
2017-04-14T01:56:33.383Z,0
2017-04-14T01:57:43.554Z,0
2017-04-14T01:58:53.292Z,0
2017-04-14T02:00:03.375Z,0
2017-04-14T02:01:13.454Z,0
2017-04-14T02:02:23.819Z,0
2017-04-14T02:03:34.030Z,0
2017-04-14T02:04:44.113Z,0
2017-04-14T02:05:54.190Z,0
2017-04-14T02:07:03.622Z,0
2017-04-14T02:08:13.687Z,0
2017-04-14T02:09:23.804Z,0
2017-04-14T02:10:33.886Z,0
2017-04-14T02:11:43.597Z,0
2017-04-14T02:12:53.481Z,0
2017-04-14T02:14:03.551Z,0
2017-04-14T02:15:13.283Z,0
2017-04-14T02:16:23.462Z,0
2017-04-14T02:17:33.835Z,0
2017-04-14T02:18:43.951Z,0
2017-04-14T02:19:54.115Z,0
2017-04-14T02:21:03.868Z,0
2017-04-14T02:22:13.285Z,0
2017-04-14T02:23:23.756Z,0
2017-04-14T02:24:33.495Z,0
2017-04-14T02:25:43.646Z,0
2017-04-14T02:26:53.818Z,0
2017-04-14T02:28:03.938Z,0
2017-04-14T02:29:13.968Z,0
2017-04-14T02:30:24.092Z,0
2017-04-14T02:31:34.106Z,0
2017-04-14T02:32:43.844Z,0
2017-04-14T02:33:53.597Z,0
2017-04-14T02:35:03.632Z,0
2017-04-14T02:36:13.747Z,0
2017-04-14T02:37:23.486Z,0
2017-04-14T02:38:32.885Z,0
2017-04-14T02:39:43.030Z,0
2017-04-14T02:40:53.055Z,0
2017-04-14T02:42:02.788Z,0
2017-04-14T02:43:12.596Z,0
2017-04-14T02:44:22.020Z,0
2017-04-14T02:45:31.804Z,0
2017-04-14T02:46:41.921Z,0
2017-04-14T02:47:52.001Z,0
2017-04-14T02:49:02.219Z,0
2017-04-14T02:50:12.289Z,0
2017-04-14T02:51:22.120Z,0
2017-04-14T02:52:32.199Z,0
2017-04-14T02:53:41.942Z,0
2017-04-14T02:54:52.151Z,0
2017-04-14T02:56:01.895Z,0
2017-04-14T02:57:12.005Z,0
2017-04-14T02:58:22.092Z,0
2017-04-14T02:59:32.186Z,0
2017-04-14T03:00:42.254Z,0
2017-04-14T03:01:51.996Z,0
2017-04-14T03:03:01.734Z,0
2017-04-14T03:04:12.114Z,0
2017-04-14T03:05:21.848Z,0
2017-04-14T03:06:32.010Z,0
2017-04-14T03:07:42.202Z,0
2017-04-14T03:08:51.607Z,0
2017-04-14T03:10:01.970Z,0
2017-04-14T03:11:11.763Z,0
2017-04-14T03:12:21.546Z,0
2017-04-14T03:13:31.432Z,0
2017-04-14T03:14:41.496Z,0
2017-04-14T03:15:50.875Z,0
2017-04-14T03:17:00.943Z,0
2017-04-14T03:18:11.010Z,0
2017-04-14T03:19:20.802Z,0
2017-04-14T03:20:30.254Z,0
2017-04-14T03:21:40.289Z,0
2017-04-14T03:22:49.704Z,0
2017-04-14T03:23:59.818Z,0
2017-04-14T03:25:09.558Z,0
2017-04-14T03:26:19.674Z,0
2017-04-14T03:27:30.048Z,0
2017-04-14T03:28:39.449Z,0
2017-04-14T03:29:49.581Z,0
2017-04-14T03:30:59.753Z,0
2017-04-14T03:32:09.498Z,0
2017-04-14T03:33:19.980Z,0
2017-04-14T03:34:30.166Z,0
2017-04-14T03:35:40.016Z,0
2017-04-14T03:36:50.080Z,0
2017-04-14T03:37:59.800Z,0
2017-04-14T03:39:09.836Z,0
2017-04-14T03:40:19.574Z,0
2017-04-14T03:41:28.978Z,0
2017-04-14T03:42:38.727Z,0
2017-04-14T03:43:48.461Z,0
2017-04-14T03:44:58.913Z,0
2017-04-14T03:46:09.049Z,0
2017-04-14T03:47:19.117Z,0
2017-04-14T03:48:28.848Z,0
2017-04-14T03:49:38.592Z,0
2017-04-14T03:50:48.714Z,0
2017-04-14T03:51:58.505Z,0
2017-04-14T03:53:08.581Z,0
2017-04-14T03:54:18.656Z,0
2017-04-14T03:55:28.463Z,0
2017-04-14T03:56:38.501Z,0
2017-04-14T03:57:48.261Z,0
2017-04-14T03:58:58.339Z,0
2017-04-14T04:00:08.452Z,0
2017-04-14T04:01:18.603Z,0
2017-04-14T04:02:28.701Z,0
2017-04-14T04:03:38.469Z,0
2017-04-14T04:04:48.542Z,0
2017-04-14T04:05:58.302Z,0
2017-04-14T04:07:07.750Z,0
2017-04-14T04:08:17.802Z,0
2017-04-14T04:09:27.536Z,0
2017-04-14T04:10:37.672Z,5
2017-04-14T04:11:47.755Z,5
2017-04-14T04:12:57.160Z,5
2017-04-14T04:14:07.496Z,5
2017-04-14T04:15:17.564Z,5
2017-04-14T04:16:27.633Z,10
2017-04-14T04:17:37.048Z,10
2017-04-14T04:18:46.787Z,10
2017-04-14T04:19:56.937Z,10
2017-04-14T04:21:07.070Z,10
2017-04-14T04:22:16.845Z,15
2017-04-14T04:23:26.778Z,15
2017-04-14T04:24:36.542Z,15
2017-04-14T04:25:46.586Z,20
2017-04-14T04:26:56.716Z,20
2017-04-14T04:28:06.446Z,20
2017-04-14T04:29:16.206Z,25
2017-04-14T04:30:25.992Z,25
2017-04-14T04:31:36.021Z,25
2017-04-14T04:32:45.793Z,30
2017-04-14T04:33:55.540Z,30
2017-04-14T04:35:05.602Z,30
2017-04-14T04:36:15.450Z,35
2017-04-14T04:37:25.589Z,35
2017-04-14T04:38:35.662Z,40
2017-04-14T04:39:45.134Z,40
2017-04-14T04:40:54.879Z,40
2017-04-14T04:42:04.650Z,45
2017-04-14T04:43:14.639Z,45
2017-04-14T04:44:24.757Z,45
2017-04-14T04:45:34.810Z,50
2017-04-14T04:46:44.275Z,50
2017-04-14T04:47:54.411Z,55
2017-04-14T04:49:04.462Z,55
2017-04-14T04:50:14.541Z,60
2017-04-14T04:51:24.605Z,60
2017-04-14T04:52:34.105Z,60
2017-04-14T04:53:44.378Z,65
2017-04-14T04:54:54.883Z,65
2017-04-14T04:56:05.011Z,70
2017-04-14T04:57:14.447Z,75
2017-04-14T04:58:24.549Z,80
2017-04-14T04:59:34.386Z,80
2017-04-14T05:00:44.759Z,85
2017-04-14T05:01:54.497Z,90
2017-04-14T05:03:04.579Z,95
2017-04-14T05:04:14.314Z,100
2017-04-14T05:05:24.387Z,100
2017-04-14T05:06:34.801Z,100
2017-04-14T05:07:44.871Z,100
2017-04-14T05:08:54.681Z,105
2017-04-14T05:10:04.913Z,110
2017-04-14T05:11:15.134Z,115
2017-04-14T05:12:25.495Z,125
2017-04-14T05:13:35.236Z,125
2017-04-14T05:14:45.038Z,130
2017-04-14T05:15:54.791Z,135
2017-04-14T05:17:04.627Z,135
2017-04-14T05:18:14.654Z,135
2017-04-14T05:19:24.724Z,145
2017-04-14T05:20:34.811Z,150
2017-04-14T05:21:44.542Z,155
2017-04-14T05:22:54.613Z,155
2017-04-14T05:24:05.082Z,155
2017-04-14T05:25:46.979Z,160
2017-04-14T05:26:57.127Z,160
2017-04-14T05:28:07.201Z,165
2017-04-14T05:29:17.296Z,170
2017-04-14T05:30:26.715Z,170
2017-04-14T05:31:36.932Z,175
2017-04-14T05:32:46.709Z,180
2017-04-14T05:33:56.132Z,185
2017-04-14T05:35:06.550Z,190
2017-04-14T05:36:16.296Z,190
2017-04-14T05:37:26.059Z,185
2017-04-14T05:38:36.259Z,185
2017-04-14T05:39:46.348Z,180
2017-04-14T05:40:56.784Z,180
2017-04-14T05:42:06.515Z,180
2017-04-14T05:43:16.394Z,180
2017-04-14T05:44:26.536Z,180
2017-04-14T05:45:36.601Z,185
2017-04-14T05:46:47.044Z,180
2017-04-14T05:47:56.806Z,180
2017-04-14T05:49:06.865Z,180
2017-04-14T05:50:16.662Z,175
2017-04-14T05:51:26.456Z,180
2017-04-14T05:52:36.635Z,185
2017-04-14T05:53:46.721Z,190
2017-04-14T05:54:56.131Z,190
2017-04-14T05:56:06.220Z,195
2017-04-14T05:57:16.162Z,195
2017-04-14T05:58:26.299Z,200
2017-04-14T05:59:36.331Z,205
2017-04-14T06:00:46.077Z,210
2017-04-14T06:01:56.163Z,210
2017-04-14T06:03:05.903Z,215
2017-04-14T06:04:16.091Z,215
2017-04-14T06:05:25.879Z,225
2017-04-14T06:06:35.281Z,225
2017-04-14T06:07:45.111Z,230
2017-04-14T06:08:54.869Z,240
2017-04-14T06:10:04.998Z,250
2017-04-14T06:11:14.740Z,250
2017-04-14T06:12:24.887Z,255
2017-04-14T06:13:35.047Z,260
2017-04-14T06:14:45.148Z,265
2017-04-14T06:15:55.624Z,270
2017-04-14T06:17:05.753Z,275
2017-04-14T06:18:15.497Z,290
2017-04-14T06:19:25.567Z,280
2017-04-14T06:20:35.328Z,280
2017-04-14T06:21:45.399Z,280
2017-04-14T06:22:54.956Z,285
2017-04-14T06:24:05.121Z,290
2017-04-14T06:25:15.338Z,295
2017-04-14T06:26:25.123Z,315
2017-04-14T06:27:35.767Z,330
2017-04-14T06:28:45.845Z,345
2017-04-14T06:29:55.674Z,345
2017-04-14T06:31:05.449Z,355
2017-04-14T06:32:15.189Z,365
2017-04-14T06:33:25.271Z,375
2017-04-14T06:34:35.023Z,385
2017-04-14T06:35:44.764Z,385
2017-04-14T06:36:54.549Z,385
2017-04-14T06:38:04.338Z,390
2017-04-14T06:39:14.774Z,395
2017-04-14T06:40:24.518Z,400
2017-04-14T06:41:33.946Z,405
2017-04-14T06:42:44.052Z,400
2017-04-14T06:43:53.791Z,400
2017-04-14T06:45:04.169Z,400
2017-04-14T06:46:14.254Z,400
2017-04-14T06:47:24.343Z,400
2017-04-14T06:48:34.409Z,400
2017-04-14T06:49:44.525Z,405
2017-04-14T06:50:54.935Z,410
2017-04-14T06:52:05.025Z,420
2017-04-14T06:53:15.178Z,425
2017-04-14T06:54:25.248Z,425
2017-04-14T06:55:35.337Z,430
2017-04-14T06:56:45.728Z,430
2017-04-14T06:57:55.514Z,430
2017-04-14T06:59:05.246Z,430
2017-04-14T07:00:15.338Z,440
2017-04-14T07:01:25.559Z,445
2017-04-14T07:02:35.664Z,465
2017-04-14T07:03:45.832Z,470
2017-04-14T07:04:55.620Z,470
2017-04-14T07:06:05.954Z,465
2017-04-14T07:07:15.933Z,460
2017-04-14T07:08:25.976Z,460
2017-04-14T07:09:36.054Z,460
2017-04-14T07:10:46.123Z,475
2017-04-14T07:11:55.870Z,480
2017-04-14T07:13:05.959Z,490
2017-04-14T07:14:15.734Z,495
2017-04-14T07:15:26.002Z,505
2017-04-14T07:16:36.086Z,515
2017-04-14T07:17:46.291Z,520
2017-04-14T07:18:55.697Z,530
2017-04-14T07:20:06.110Z,525
2017-04-14T07:21:15.598Z,540
2017-04-14T07:22:25.339Z,555
2017-04-14T07:23:35.430Z,550
2017-04-14T07:24:45.529Z,550
2017-04-14T07:25:55.589Z,560
2017-04-14T07:27:05.693Z,560
2017-04-14T07:28:15.852Z,565
2017-04-14T07:29:25.765Z,575
2017-04-14T07:30:35.866Z,580
2017-04-14T07:31:45.908Z,575
2017-04-14T07:32:55.995Z,565
2017-04-14T07:34:06.085Z,560
2017-04-14T07:35:16.226Z,565
2017-04-14T07:36:26.359Z,595
2017-04-14T07:37:36.754Z,610
2017-04-14T07:38:47.041Z,600
2017-04-14T07:39:57.373Z,610
2017-04-14T07:41:07.456Z,600
2017-04-14T07:42:17.194Z,610
2017-04-14T07:43:27.235Z,610
2017-04-14T07:44:37.313Z,595
2017-04-14T07:45:47.070Z,600
2017-04-14T07:46:57.211Z,595
2017-04-14T07:48:07.380Z,590
2017-04-14T07:49:17.791Z,605
2017-04-14T07:50:27.865Z,625
2017-04-14T07:51:38.063Z,665
2017-04-14T07:52:47.579Z,635
2017-04-14T07:53:57.662Z,645
2017-04-14T07:55:06.799Z,670
2017-04-14T07:56:16.978Z,655
2017-04-14T07:57:27.993Z,645
2017-04-14T07:58:38.420Z,645
2017-04-14T07:59:49.115Z,630
2017-04-14T08:00:59.671Z,625
2017-04-14T08:02:10.433Z,620
2017-04-14T08:03:20.896Z,640
2017-04-14T08:04:31.279Z,665
2017-04-14T08:05:42.063Z,690
2017-04-14T08:06:53.138Z,715
2017-04-14T08:08:03.570Z,720
2017-04-14T08:09:14.322Z,670
2017-04-14T08:10:24.691Z,670
2017-04-14T08:11:36.017Z,715
2017-04-14T08:12:46.838Z,665
2017-04-14T08:13:57.612Z,655
2017-04-14T08:15:08.323Z,630
2017-04-14T08:16:19.052Z,650
2017-04-14T08:17:29.522Z,670
2017-04-14T08:18:40.554Z,685
2017-04-14T08:19:52.235Z,660
2017-04-14T08:21:02.685Z,760
2017-04-14T08:22:13.106Z,790
2017-04-14T08:23:23.847Z,770
2017-04-14T08:24:34.928Z,780
2017-04-14T08:25:45.678Z,780
2017-04-14T08:26:56.064Z,770
2017-04-14T08:28:06.831Z,835
2017-04-14T08:29:17.583Z,855
2017-04-14T08:30:28.700Z,870
2017-04-14T08:31:39.393Z,860
2017-04-14T08:32:50.134Z,875
2017-04-14T08:34:00.903Z,935
2017-04-14T08:35:11.713Z,955
2017-04-14T08:36:22.375Z,855
2017-04-14T08:37:33.089Z,940
2017-04-14T08:38:44.433Z,1050
2017-04-14T08:39:55.244Z,985
2017-04-14T08:41:06.004Z,1080
2017-04-14T08:42:17.105Z,1275
2017-04-14T08:43:27.823Z,1535
2017-04-14T08:44:37.877Z,1720
2017-04-14T08:45:48.269Z,2410
2017-04-14T08:46:59.098Z,2565
2017-04-14T08:48:09.902Z,1635
2017-04-14T08:49:20.700Z,2645
2017-04-14T08:50:31.114Z,2530
2017-04-14T08:51:41.963Z,2485
2017-04-14T08:52:52.384Z,2040
2017-04-14T08:54:03.468Z,2475
2017-04-14T08:55:14.165Z,2470
2017-04-14T08:56:24.691Z,2380
2017-04-14T08:57:35.426Z,2410
2017-04-14T08:58:46.332Z,2330
2017-04-14T08:59:58.077Z,2490
2017-04-14T09:01:09.906Z,2970
2017-04-14T09:02:20.626Z,3015
2017-04-14T09:03:31.337Z,2845
2017-04-14T09:04:42.103Z,2400
2017-04-14T09:05:53.150Z,2580
2017-04-14T09:07:03.616Z,2850
2017-04-14T09:08:14.035Z,3115
2017-04-14T09:09:24.086Z,3055
2017-04-14T09:10:35.845Z,2900
2017-04-14T09:11:47.828Z,2945
2017-04-14T09:12:58.625Z,3260
2017-04-14T09:14:09.366Z,3155
2017-04-14T09:15:20.250Z,3250
2017-04-14T09:16:31.075Z,3530
2017-04-14T09:17:42.161Z,2955
2017-04-14T09:18:52.606Z,1995
2017-04-14T09:20:03.382Z,1140
2017-04-14T09:21:14.143Z,2500
2017-04-14T09:22:24.955Z,975
2017-04-14T09:23:35.316Z,895
2017-04-14T09:24:46.103Z,2075
2017-04-14T09:25:56.580Z,3505
2017-04-14T09:27:07.013Z,2585
2017-04-14T09:28:17.736Z,4040
2017-04-14T09:29:28.769Z,2860
2017-04-14T09:30:39.136Z,4465
2017-04-14T09:31:50.955Z,4080
2017-04-14T09:33:01.664Z,4340
2017-04-14T09:34:12.413Z,4280
2017-04-14T09:35:23.570Z,4275
2017-04-14T09:36:34.986Z,4020
2017-04-14T09:37:45.848Z,3765
2017-04-14T09:38:56.579Z,3560
2017-04-14T09:40:06.889Z,3025
2017-04-14T09:41:17.952Z,2105
2017-04-14T09:42:28.838Z,1900
2017-04-14T09:43:39.611Z,2330
2017-04-14T09:44:50.386Z,2435
2017-04-14T09:46:01.123Z,3010
2017-04-14T09:47:12.172Z,2850
2017-04-14T09:48:23.861Z,2555
2017-04-14T09:49:34.256Z,3395
2017-04-14T09:50:45.021Z,3980
2017-04-14T09:51:55.840Z,3770
2017-04-14T09:53:06.869Z,3895
2017-04-14T09:54:17.731Z,3755
2017-04-14T09:55:28.618Z,3960
2017-04-14T09:56:39.053Z,4185
2017-04-14T09:57:49.448Z,4330
2017-04-14T09:59:00.479Z,3805
2017-04-14T10:00:11.192Z,4385
2017-04-14T10:01:22.086Z,4440
2017-04-14T10:02:32.178Z,4825
2017-04-14T10:03:43.533Z,2585
2017-04-14T10:04:54.546Z,1165
2017-04-14T10:06:05.898Z,4695
2017-04-14T10:07:16.303Z,4690
2017-04-14T10:08:26.693Z,4635
2017-04-14T10:09:37.547Z,4730
2017-04-14T10:10:48.680Z,4560
2017-04-14T10:11:59.847Z,4115
2017-04-14T10:13:11.513Z,3825
2017-04-14T10:14:21.912Z,3720
2017-04-14T10:15:32.703Z,3920
2017-04-14T10:16:43.453Z,4125
2017-04-14T10:17:53.947Z,4385
2017-04-14T10:19:04.880Z,4115
2017-04-14T10:20:15.792Z,4370
2017-04-14T10:21:25.968Z,3950
2017-04-14T10:22:37.114Z,4355
2017-04-14T10:23:47.840Z,4605
2017-04-14T10:24:58.592Z,4970
2017-04-14T10:26:09.614Z,5110
2017-04-14T10:27:20.477Z,5450
2017-04-14T10:28:31.201Z,5210
2017-04-14T10:30:13.073Z,4745
2017-04-14T10:31:23.818Z,4680
2017-04-14T10:32:34.688Z,5050
2017-04-14T10:33:46.768Z,5130
2017-04-14T10:34:57.638Z,5090
2017-04-14T10:36:08.039Z,4420
2017-04-14T10:37:18.534Z,4550
2017-04-14T10:38:29.379Z,4405
2017-04-14T10:39:41.379Z,4440
2017-04-14T10:40:52.145Z,4735
2017-04-14T10:42:02.882Z,5165
2017-04-14T10:43:13.709Z,1525
2017-04-14T10:44:24.563Z,1535
2017-04-14T10:45:35.726Z,1395
2017-04-14T10:46:46.544Z,1695
2017-04-14T10:47:56.940Z,5135
2017-04-14T10:49:07.325Z,5140
2017-04-14T10:50:18.118Z,5235
2017-04-14T10:51:29.169Z,5225
2017-04-14T10:52:39.944Z,4895
2017-04-14T10:53:50.683Z,4905
2017-04-14T10:55:01.448Z,1840
2017-04-14T10:56:12.276Z,1975
2017-04-14T10:57:23.311Z,5015
2017-04-14T10:58:33.760Z,2270
2017-04-14T10:59:44.530Z,4185
2017-04-14T11:00:55.291Z,3985
2017-04-14T11:02:06.128Z,4265
2017-04-14T11:03:17.201Z,4820
2017-04-14T11:04:27.290Z,4100
2017-04-14T11:05:37.703Z,3815
2017-04-14T11:06:48.592Z,3330
2017-04-14T11:07:59.388Z,3480
2017-04-14T11:09:10.446Z,4295
2017-04-14T11:10:21.869Z,1000
2017-04-14T11:11:32.374Z,1025
2017-04-14T11:12:42.845Z,1630
2017-04-14T11:13:53.687Z,2145
2017-04-14T11:15:04.791Z,1405
2017-04-14T11:16:15.534Z,4960
2017-04-14T11:17:25.942Z,4780
2017-04-14T11:18:37.737Z,4185
2017-04-14T11:19:48.463Z,3880
2017-04-14T11:20:59.506Z,3770
2017-04-14T11:22:11.218Z,3230
2017-04-14T11:23:22.121Z,3325
2017-04-14T11:24:32.902Z,3870
2017-04-14T11:25:43.454Z,4210
2017-04-14T11:26:54.182Z,4430
2017-04-14T11:28:04.640Z,4500
2017-04-14T11:29:15.476Z,4775
2017-04-14T11:30:26.444Z,1305
2017-04-14T11:31:36.924Z,1335
2017-04-14T11:32:47.285Z,1340
2017-04-14T11:33:57.827Z,4170
2017-04-14T11:35:08.678Z,4550
2017-04-14T11:36:19.064Z,4600
2017-04-14T11:37:30.093Z,4750
2017-04-14T11:38:41.362Z,4810
2017-04-14T11:39:53.039Z,4690
2017-04-14T11:41:04.835Z,4610
2017-04-14T11:42:15.742Z,4690
2017-04-14T11:43:26.231Z,4910
2017-04-14T11:44:37.378Z,4970
2017-04-14T11:45:47.099Z,4855
2017-04-14T11:46:57.664Z,4645
2017-04-14T11:48:08.395Z,4605
2017-04-14T11:49:20.149Z,4535
2017-04-14T11:50:31.173Z,4330
2017-04-14T11:51:41.943Z,4410
2017-04-14T11:52:52.826Z,4085
2017-04-14T11:54:03.665Z,4105
2017-04-14T11:55:14.426Z,3920
2017-04-14T11:56:25.546Z,3815
2017-04-14T11:57:35.687Z,3805
2017-04-14T11:58:47.068Z,3770
2017-04-14T11:59:57.476Z,3700
2017-04-14T12:01:08.221Z,3775
2017-04-14T12:02:19.423Z,4280
2017-04-14T12:03:30.242Z,4475
2017-04-14T12:04:41.013Z,4435
2017-04-14T12:05:51.451Z,4540
2017-04-14T12:07:01.856Z,4405
2017-04-14T12:08:12.951Z,4515
2017-04-14T12:09:23.407Z,4455
2017-04-14T12:10:34.142Z,4190
2017-04-14T12:11:44.899Z,4155
2017-04-14T12:12:55.358Z,4075
2017-04-14T12:14:06.042Z,3905
2017-04-14T12:15:17.420Z,3615
2017-04-14T12:16:28.248Z,3500
2017-04-14T12:17:39.126Z,3730
2017-04-14T12:18:49.533Z,4045
2017-04-14T12:20:00.562Z,4440
2017-04-14T12:21:12.277Z,4585
2017-04-14T12:22:22.680Z,4685
2017-04-14T12:23:33.457Z,4345
2017-04-14T12:24:43.901Z,4020
2017-04-14T12:25:54.682Z,3990
2017-04-14T12:27:04.712Z,4070
2017-04-14T12:28:15.539Z,4115
2017-04-14T12:29:26.086Z,4105
2017-04-14T12:30:37.947Z,4135
2017-04-14T12:31:48.665Z,4265
2017-04-14T12:32:59.579Z,4270
2017-04-14T12:34:09.977Z,4185
2017-04-14T12:35:20.441Z,3770
2017-04-14T12:36:31.243Z,3645
2017-04-14T12:37:42.383Z,3905
2017-04-14T12:38:52.856Z,3875
2017-04-14T12:40:03.295Z,4395
2017-04-14T12:41:14.026Z,4290
2017-04-14T12:42:24.831Z,4130
2017-04-14T12:43:35.958Z,4100
2017-04-14T12:44:46.730Z,4295
2017-04-14T12:45:57.529Z,4540
2017-04-14T12:47:08.312Z,4690
2017-04-14T12:48:19.154Z,635
2017-04-14T12:49:30.881Z,1235
2017-04-14T12:50:41.358Z,1225
2017-04-14T12:51:52.154Z,3230
2017-04-14T12:53:02.634Z,4705
2017-04-14T12:54:12.786Z,1660
2017-04-14T12:55:23.569Z,4965
2017-04-14T12:56:34.301Z,4745
2017-04-14T12:57:45.044Z,4295
2017-04-14T12:58:55.796Z,3780
2017-04-14T13:00:06.688Z,1515
2017-04-14T13:01:17.825Z,1600
2017-04-14T13:02:27.982Z,3805
2017-04-14T13:03:38.509Z,4215
2017-04-14T13:04:49.309Z,1630
2017-04-14T13:06:00.063Z,2100
2017-04-14T13:07:11.218Z,1205
2017-04-14T13:08:21.615Z,1110
2017-04-14T13:09:32.355Z,995
2017-04-14T13:10:43.081Z,905
2017-04-14T13:11:53.828Z,810
2017-04-14T13:13:04.572Z,705
2017-04-14T13:14:14.305Z,635
2017-04-14T13:15:25.104Z,590
2017-04-14T13:16:35.892Z,555
2017-04-14T13:17:46.634Z,545
2017-04-14T13:18:58.365Z,540
2017-04-14T13:20:09.181Z,535
2017-04-14T13:21:20.880Z,525
2017-04-14T13:22:31.751Z,525
2017-04-14T13:23:42.493Z,550
2017-04-14T13:24:53.615Z,565
2017-04-14T13:26:04.039Z,590
2017-04-14T13:27:14.768Z,600
2017-04-14T13:28:25.543Z,670
2017-04-14T13:29:36.080Z,760
2017-04-14T13:30:46.721Z,835
2017-04-14T13:31:57.393Z,900
2017-04-14T13:33:08.169Z,880
2017-04-14T13:34:19.011Z,845
2017-04-14T13:35:29.451Z,875
2017-04-14T13:36:40.640Z,905
2017-04-14T13:37:51.418Z,895
2017-04-14T13:39:03.106Z,835
2017-04-14T13:40:13.732Z,780
2017-04-14T13:41:24.465Z,1040
2017-04-14T13:42:35.487Z,950
2017-04-14T13:43:46.207Z,1020
2017-04-14T13:44:57.040Z,1035
2017-04-14T13:46:07.892Z,1070
2017-04-14T13:47:17.985Z,1225
2017-04-14T13:48:29.013Z,1350
2017-04-14T13:49:39.420Z,1500
2017-04-14T13:50:49.841Z,1355
2017-04-14T13:52:00.623Z,1325
2017-04-14T13:53:11.351Z,1240
2017-04-14T13:54:23.044Z,1320
2017-04-14T13:55:33.754Z,1335
2017-04-14T13:56:44.538Z,1270
2017-04-14T13:57:54.922Z,1220
2017-04-14T13:59:05.765Z,1120
2017-04-14T14:00:16.144Z,1065
2017-04-14T14:01:26.921Z,1010
2017-04-14T14:02:37.342Z,970
2017-04-14T14:03:48.181Z,910
2017-04-14T14:04:58.921Z,825
2017-04-14T14:06:09.701Z,765
2017-04-14T14:07:20.544Z,715
2017-04-14T14:08:32.037Z,680
2017-04-14T14:09:42.433Z,685
2017-04-14T14:10:53.151Z,690
2017-04-14T14:12:03.824Z,690
2017-04-14T14:13:14.653Z,705
2017-04-14T14:14:25.092Z,735
2017-04-14T14:15:35.875Z,750
2017-04-14T14:16:46.978Z,760
2017-04-14T14:17:58.007Z,760
2017-04-14T14:19:08.748Z,770
2017-04-14T14:20:18.460Z,780
2017-04-14T14:21:29.366Z,780
2017-04-14T14:22:40.202Z,780
2017-04-14T14:23:50.944Z,770
2017-04-14T14:25:01.397Z,745
2017-04-14T14:26:12.245Z,705
2017-04-14T14:27:22.297Z,675
2017-04-14T14:28:32.792Z,630
2017-04-14T14:29:43.874Z,590
2017-04-14T14:30:54.588Z,550
2017-04-14T14:32:04.978Z,540
2017-04-14T14:33:16.511Z,525
2017-04-14T14:34:27.264Z,505
2017-04-14T14:35:38.350Z,495
2017-04-14T14:36:49.206Z,510
2017-04-14T14:37:59.642Z,545
2017-04-14T14:39:10.414Z,565
2017-04-14T14:40:20.793Z,580
2017-04-14T14:41:31.512Z,590
2017-04-14T14:42:42.242Z,585
2017-04-14T14:43:52.652Z,565
2017-04-14T14:45:04.418Z,545
2017-04-14T14:46:15.249Z,515
2017-04-14T14:47:25.937Z,475
2017-04-14T14:48:36.686Z,455
2017-04-14T14:49:47.390Z,435
2017-04-14T14:50:58.110Z,400
2017-04-14T14:52:08.927Z,365
2017-04-14T14:53:19.815Z,330
2017-04-14T14:54:30.566Z,305
2017-04-14T14:55:40.946Z,290
2017-04-14T14:56:51.670Z,260
2017-04-14T14:58:02.044Z,240
2017-04-14T14:59:13.150Z,235
2017-04-14T15:00:23.890Z,230
2017-04-14T15:01:34.676Z,225
2017-04-14T15:02:46.103Z,215
2017-04-14T15:03:56.823Z,205
2017-04-14T15:05:07.507Z,200
2017-04-14T15:06:16.883Z,210
2017-04-14T15:07:27.653Z,220
2017-04-14T15:08:38.375Z,230
2017-04-14T15:09:48.800Z,235
2017-04-14T15:10:59.533Z,245
2017-04-14T15:12:10.245Z,255
2017-04-14T15:13:20.838Z,260
2017-04-14T15:14:31.610Z,260
2017-04-14T15:15:41.998Z,250
2017-04-14T15:16:53.019Z,220
2017-04-14T15:18:03.859Z,185
2017-04-14T15:19:14.341Z,160
2017-04-14T15:20:24.769Z,150
2017-04-14T15:21:35.571Z,145
2017-04-14T15:22:46.602Z,150
2017-04-14T15:23:58.290Z,155
2017-04-14T15:25:09.063Z,160
2017-04-14T15:26:20.397Z,160
2017-04-14T15:27:31.160Z,160
2017-04-14T15:28:41.926Z,155
2017-04-14T15:29:52.328Z,155
2017-04-14T15:31:03.052Z,155
2017-04-14T15:32:14.019Z,155
2017-04-14T15:33:24.389Z,170
2017-04-14T15:34:35.496Z,195
2017-04-14T15:35:46.303Z,215
2017-04-14T15:36:56.753Z,225
2017-04-14T15:38:06.819Z,225
2017-04-14T15:39:17.316Z,225
2017-04-14T15:40:28.350Z,225
2017-04-14T15:41:38.766Z,225
2017-04-14T15:42:49.515Z,235
2017-04-14T15:44:00.236Z,245
2017-04-14T15:45:11.895Z,245
2017-04-14T15:46:22.482Z,240
2017-04-14T15:47:33.315Z,250
2017-04-14T15:48:44.182Z,255
2017-04-14T15:49:54.183Z,240
2017-04-14T15:51:04.554Z,215
2017-04-14T15:52:15.706Z,205
2017-04-14T15:53:26.434Z,200
2017-04-14T15:54:36.864Z,195
2017-04-14T15:55:47.311Z,190
2017-04-14T15:56:58.105Z,200
2017-04-14T15:58:08.789Z,210
2017-04-14T15:59:19.527Z,215
2017-04-14T16:00:29.973Z,210
2017-04-14T16:01:41.637Z,200
2017-04-14T16:02:52.036Z,180
2017-04-14T16:04:03.052Z,160
2017-04-14T16:05:14.705Z,155
2017-04-14T16:06:25.140Z,155
2017-04-14T16:07:35.958Z,150
2017-04-14T16:08:47.620Z,135
2017-04-14T16:09:58.727Z,130
2017-04-14T16:11:08.891Z,125
2017-04-14T16:12:19.701Z,120
2017-04-14T16:13:30.095Z,110
2017-04-14T16:14:40.175Z,100
2017-04-14T16:15:51.334Z,90
2017-04-14T16:17:02.064Z,85
2017-04-14T16:18:12.426Z,80
2017-04-14T16:19:23.775Z,80
2017-04-14T16:20:34.241Z,75